Captain Duane Patrick — WDE8361 — position and weather

sailwx.info

Track history (hours):
 
Tides and Currents Weather Stations Pressure Air Temp Water Temp Dewpoint Dewpoint Depression Visibility Wind Speed Wind Dir Waves Ship Positions

Captain Duane Patrick

Owner: Lafayette Workboat Rentals LLC., Broussard, LA. More information available from US FCC via Universal Licensing System and Coast Guard Vessel Documentation Center.

Last reported at 2018-Feb-20 07:32 UTC. Time now 2018-Feb-22 04:44 UTC.
Position N 28°57' W 095°18'.

Length 18 m.

MMSI: 367404580.

Date/timePositionNaut miles runAvg speedWind from/ knotsBaromVisibWave heightAir tempDewpointWater temp
2018-Feb-20 07:32N 28°57' W 095°18'2 6.6
2018-Feb-20 07:15N 28°58' W 095°17'1 5.0
2018-Feb-20 06:58N 28°59' W 095°16'37 4.7
2018-Feb-19 22:59N 29°30' W 094°52'3 6.6
2018-Feb-19 22:30N 29°33' W 094°55'3 6.8
2018-Feb-19 22:00N 29°36' W 094°57'3 6.8
2018-Feb-19 21:30N 29°39' W 094°58'3 6.8
2018-Feb-19 21:00N 29°42' W 094°60'3 6.0
2018-Feb-19 20:30N 29°44' W 095°03'3 5.7
2018-Feb-19 19:59N 29°45' W 095°06'9 0.9
2018-Feb-19 09:39N 29°43' W 095°16'0 1.4
2018-Feb-19 09:30N 29°43' W 095°16'4 5.8
2018-Feb-19 08:49N 29°45' W 095°12'2 6.3
2018-Feb-19 08:27N 29°44' W 095°09'3 6.5
2018-Feb-19 08:00N 29°45' W 095°06'2 4.8
2018-Feb-19 07:30N 29°44' W 095°03'3 6.0
2018-Feb-19 07:00N 29°42' W 095°01'3 6.7
2018-Feb-19 06:30N 29°39' W 094°58'4 7.4
2018-Feb-19 06:00N 29°36' W 094°57'4 7.4
2018-Feb-19 05:30N 29°33' W 094°54'4 7.7
2018-Feb-19 05:00N 29°30' W 094°52'4 7.9
2018-Feb-19 04:30N 29°26' W 094°50'5 6.6
2018-Feb-19 03:44N 29°21' W 094°49'37 1.7
2018-Feb-18 06:36N 28°57' W 095°20'1 0.0
2018-Feb-17 02:54N 28°57' W 095°20'0 0.5
2018-Feb-17 02:29N 28°57' W 095°20'1 1.8
2018-Feb-17 01:58N 28°57' W 095°19'2 4.6
2018-Feb-17 01:30N 28°58' W 095°17'2 4.0
2018-Feb-17 00:57N 28°60' W 095°15'3 4.6
2018-Feb-17 00:18N 29°02' W 095°14'31 4.4
2018-Feb-16 17:15N 29°26' W 094°50'2 7.9
2018-Feb-16 17:00N 29°27' W 094°51'4 7.7
2018-Feb-16 16:29N 29°31' W 094°53'3 7.1
2018-Feb-16 16:00N 29°34' W 094°55'3 6.9
2018-Feb-16 15:30N 29°37' W 094°57'4 7.0
2018-Feb-16 14:59N 29°40' W 094°59'3 7.0
2018-Feb-16 14:30N 29°43' W 095°01'3 6.2
2018-Feb-16 14:00N 29°45' W 095°04'2 4.9
2018-Feb-16 13:30N 29°44' W 095°07'5 0.3
2018-Feb-15 19:33N 29°43' W 095°01'13 0.8
2018-Feb-15 02:48N 29°43' W 095°16'13 0.5
2018-Feb-13 23:40N 29°43' W 095°01'1 5.5
2018-Feb-13 23:30N 29°42' W 095°01'3 6.4
2018-Feb-13 22:59N 29°40' W 094°58'4 7.0
2018-Feb-13 22:29N 29°36' W 094°57'3 7.2
2018-Feb-13 22:00N 29°33' W 094°55'3 0.1
2018-Feb-11 23:20N 29°31' W 094°53'2 6.0
2018-Feb-11 23:00N 29°33' W 094°54'3 6.5
2018-Feb-11 22:30N 29°35' W 094°56'4 7.0
2018-Feb-11 21:58N 29°39' W 094°58'4 7.8
2018-Feb-11 21:30N 29°42' W 095°00'1 0.1
2018-Feb-10 21:19N 29°43' W 095°01'2 6.9
2018-Feb-10 21:00N 29°41' W 094°59'4 7.5
2018-Feb-10 20:29N 29°38' W 094°58'4 8.1
2018-Feb-10 20:00N 29°34' W 094°56'  
Track history (hours):
 
Tides and Currents Weather Stations Pressure Air Temp Water Temp Dewpoint Dewpoint Depression Visibility Wind Speed Wind Dir Waves Ship Positions

Captain Duane Patrick

Owner: Lafayette Workboat Rentals LLC., Broussard, LA. More information available from US FCC via Universal Licensing System and Coast Guard Vessel Documentation Center.

Last reported at 2018-Feb-20 07:32 UTC. Time now 2018-Feb-22 04:44 UTC.
Position N 28°57' W 095°18'.

Length 18 m.

MMSI: 367404580.

Date/timePositionNaut miles runAvg speedWind from/ knotsBaromVisibWave heightAir tempDewpointWater temp
2018-Feb-20 07:32N 28°57' W 095°18'2 6.6
2018-Feb-20 07:15N 28°58' W 095°17'1 5.0
2018-Feb-20 06:58N 28°59' W 095°16'37 4.7
2018-Feb-19 22:59N 29°30' W 094°52'3 6.6
2018-Feb-19 22:30N 29°33' W 094°55'3 6.8
2018-Feb-19 22:00N 29°36' W 094°57'3 6.8
2018-Feb-19 21:30N 29°39' W 094°58'3 6.8
2018-Feb-19 21:00N 29°42' W 094°60'3 6.0
2018-Feb-19 20:30N 29°44' W 095°03'3 5.7
2018-Feb-19 19:59N 29°45' W 095°06'9 0.9
2018-Feb-19 09:39N 29°43' W 095°16'0 1.4
2018-Feb-19 09:30N 29°43' W 095°16'4 5.8
2018-Feb-19 08:49N 29°45' W 095°12'2 6.3
2018-Feb-19 08:27N 29°44' W 095°09'3 6.5
2018-Feb-19 08:00N 29°45' W 095°06'2 4.8
2018-Feb-19 07:30N 29°44' W 095°03'3 6.0
2018-Feb-19 07:00N 29°42' W 095°01'3 6.7
2018-Feb-19 06:30N 29°39' W 094°58'4 7.4
2018-Feb-19 06:00N 29°36' W 094°57'4 7.4
2018-Feb-19 05:30N 29°33' W 094°54'4 7.7
2018-Feb-19 05:00N 29°30' W 094°52'4 7.9
2018-Feb-19 04:30N 29°26' W 094°50'5 6.6
2018-Feb-19 03:44N 29°21' W 094°49'37 1.7
2018-Feb-18 06:36N 28°57' W 095°20'1 0.0
2018-Feb-17 02:54N 28°57' W 095°20'0 0.5
2018-Feb-17 02:29N 28°57' W 095°20'1 1.8
2018-Feb-17 01:58N 28°57' W 095°19'2 4.6
2018-Feb-17 01:30N 28°58' W 095°17'2 4.0
2018-Feb-17 00:57N 28°60' W 095°15'3 4.6
2018-Feb-17 00:18N 29°02' W 095°14'31 4.4
2018-Feb-16 17:15N 29°26' W 094°50'2 7.9
2018-Feb-16 17:00N 29°27' W 094°51'4 7.7
2018-Feb-16 16:29N 29°31' W 094°53'3 7.1
2018-Feb-16 16:00N 29°34' W 094°55'3 6.9
2018-Feb-16 15:30N 29°37' W 094°57'4 7.0
2018-Feb-16 14:59N 29°40' W 094°59'3 7.0
2018-Feb-16 14:30N 29°43' W 095°01'3 6.2
2018-Feb-16 14:00N 29°45' W 095°04'2 4.9
2018-Feb-16 13:30N 29°44' W 095°07'5 0.3
2018-Feb-15 19:33N 29°43' W 095°01'13 0.8
2018-Feb-15 02:48N 29°43' W 095°16'13 0.5
2018-Feb-13 23:40N 29°43' W 095°01'1 5.5
2018-Feb-13 23:30N 29°42' W 095°01'3 6.4
2018-Feb-13 22:59N 29°40' W 094°58'4 7.0
2018-Feb-13 22:29N 29°36' W 094°57'3 7.2
2018-Feb-13 22:00N 29°33' W 094°55'3 0.1
2018-Feb-11 23:20N 29°31' W 094°53'2 6.0
2018-Feb-11 23:00N 29°33' W 094°54'3 6.5
2018-Feb-11 22:30N 29°35' W 094°56'4 7.0
2018-Feb-11 21:58N 29°39' W 094°58'4 7.8
2018-Feb-11 21:30N 29°42' W 095°00'1 0.1
2018-Feb-10 21:19N 29°43' W 095°01'2 6.9
2018-Feb-10 21:00N 29°41' W 094°59'4 7.5
2018-Feb-10 20:29N 29°38' W 094°58'4 8.1
2018-Feb-10 20:00N 29°34' W 094°56'  

Dump ship's entire track history